Volgo-balt 229 — UHZF — position and weather

sailwx.info

Track history (hours):
 
Tides and Currents Weather Stations Pressure Air Temp Water Temp Dewpoint Dewpoint Depression Visibility Wind Speed Wind Dir Waves Ship Positions

Volgo-balt 229

Last reported at 2015-Sep-03 12:32 UTC. Time now 2015-Sep-03 12:56 UTC.
Position N 59°57' E 030°16'.

Length 113 m; draft 2.6 m.

Type: Ship. MMSI: 273336300.

Date/timePositionNaut miles runAvg speedWind from/ knotsBaromVisibWave heightAir tempDewpointWater temp
2015-Sep-03 12:32N 59°57' E 030°16'4 3.9
2015-Sep-03 11:33N 59°57' E 030°09'4 3.9
2015-Sep-03 10:33N 59°54' E 030°13'0 0.3
2015-Sep-03 09:33N 59°54' E 030°13'0 0.0
2015-Sep-03 08:33N 59°54' E 030°13'0 0.0
2015-Sep-03 07:33N 59°54' E 030°13'4 4.0
2015-Sep-03 06:33N 59°54' E 030°05'8 8.1
2015-Sep-03 05:33N 59°57' E 029°50'96 5.6
2015-Sep-02 12:33N 59°59' E 026°39'6 5.5
2015-Sep-02 11:32N 59°58' E 026°28'5 5.4
2015-Sep-02 10:33N 59°56' E 026°18'26 5.9
2015-Sep-02 06:08N 59°50' E 025°28'6 6.3
2015-Sep-02 05:12N 59°48' E 025°16'13 6.3
2015-Sep-02 03:13N 59°45' E 024°52'289 7.1
2015-Aug-31 10:21N 56°36' E 017°59'58 8.1
2015-Aug-31 03:12N 55°60' E 016°38'6 8.3
2015-Aug-31 02:32N 55°57' E 016°30'8 8.3
2015-Aug-31 01:33N 55°53' E 016°17'9 8.2
2015-Aug-31 00:28N 55°48' E 016°04'8 8.4
2015-Aug-30 23:33N 55°44' E 015°52'8 8.3
2015-Aug-30 22:33N 55°40' E 015°39'9 8.6
2015-Aug-30 21:33N 55°36' E 015°25'8 8.5
2015-Aug-30 20:33N 55°32' E 015°12'8 8.2
2015-Aug-30 19:33N 55°28' E 014°59'8 8.1
2015-Aug-30 18:33N 55°25' E 014°47'8 8.1
2015-Aug-30 17:33N 55°20' E 014°35'8 8.3
2015-Aug-30 16:33N 55°14' E 014°25'8 7.9
2015-Aug-30 15:33N 55°10' E 014°12'8 8.0
2015-Aug-30 14:33N 55°10' E 013°59'8 8.0
2015-Aug-30 13:33N 55°11' E 013°45'8 8.1
2015-Aug-30 12:33N 55°11' E 013°30'8 8.0
2015-Aug-30 11:33N 55°11' E 013°16'8 8.2
2015-Aug-30 10:33N 55°12' E 013°02'8 8.4
2015-Aug-30 09:33N 55°16' E 012°48'7 7.2
2015-Aug-30 08:33N 55°19' E 012°37'8 7.9
2015-Aug-30 07:33N 55°26' E 012°39'8 8.1
2015-Aug-30 06:33N 55°34' E 012°42'8 8.4
2015-Aug-30 05:33N 55°43' E 012°41'8 8.3
2015-Aug-30 04:33N 55°51' E 012°40'8 7.8
2015-Aug-30 03:33N 55°59' E 012°37'8 7.6
2015-Aug-30 02:33N 56°06' E 012°33'9 8.7
2015-Aug-30 01:33N 56°10' E 012°19'8 7.9
2015-Aug-30 00:33N 56°12' E 012°06'9 7.6
2015-Aug-29 23:19N 56°09' E 011°50'75 5.9
2015-Aug-29 10:33N 57°00' E 010°10'7 7.1
2015-Aug-29 09:33N 57°04' E 009°58'6 5.6
2015-Aug-29 08:33N 57°04' E 009°48'0 0.0
2015-Aug-27 07:24N 57°04' E 009°48'6 6.6
2015-Aug-27 06:33N 57°04' E 009°58'6 6.3
2015-Aug-27 05:33N 57°01' E 010°09'56 5.6
2015-Aug-26 19:33N 56°47' E 011°48'7 7.3
2015-Aug-26 18:33N 56°42' E 011°57'7 7.2
2015-Aug-26 17:33N 56°35' E 012°01'15 7.2
2015-Aug-26 15:31N 56°22' E 012°15'7 7.5
2015-Aug-26 14:33N 56°16' E 012°22'7 7.4
2015-Aug-26 13:33N 56°10' E 012°30'8 7.7
2015-Aug-26 12:34N 56°04' E 012°38'8 7.7
2015-Aug-26 11:33N 55°57' E 012°43'7 7.4
2015-Aug-26 10:33N 55°50' E 012°43'8 7.6
2015-Aug-26 09:34N 55°42' E 012°41'7 6.5
2015-Aug-26 08:34N 55°36' E 012°42'7 6.7
2015-Aug-26 07:34N 55°29' E 012°43'8 7.6
2015-Aug-26 06:34N 55°21' E 012°42'6 6.2
2015-Aug-26 05:32N 55°17' E 012°50'25 7.4
2015-Aug-26 02:10N 55°15' E 013°33'5 7.3
2015-Aug-26 01:29N 55°14' E 013°42'7 7.2
2015-Aug-26 00:33N 55°14' E 013°54'7 6.9
2015-Aug-25 23:33N 55°14' E 014°06'6 6.4
2015-Aug-25 22:33N 55°14' E 014°17'6 6.4
2015-Aug-25 21:34N 55°19' E 014°24'7 6.6
2015-Aug-25 20:33N 55°25' E 014°30'6 6.4
2015-Aug-25 19:33N 55°28' E 014°40'6 6.4
2015-Aug-25 18:33N 55°32' E 014°49'7 6.6
2015-Aug-25 17:33N 55°35' E 014°60'7 6.6
2015-Aug-25 16:33N 55°38' E 015°10'68 7.2
2015-Aug-25 07:06N 56°14' E 016°53'5 7.6
2015-Aug-25 06:23N 56°17' E 017°01'6 7.5
2015-Aug-25 05:33N 56°20' E 017°10'8 7.6
2015-Aug-25 04:33N 56°25' E 017°21'8 7.6
2015-Aug-25 03:33N 56°30' E 017°32'8 7.6
2015-Aug-25 02:33N 56°34' E 017°43'7 7.5
2015-Aug-25 01:33N 56°39' E 017°53'8 7.4
2015-Aug-25 00:31N 56°44' E 018°04'14 7.3
2015-Aug-24 22:34N 56°52' E 018°25'31 7.7
2015-Aug-24 18:31N 57°17' E 019°01'7 7.8
2015-Aug-24 17:34N 57°23' E 019°08'  
Track history (hours):
 
Tides and Currents Weather Stations Pressure Air Temp Water Temp Dewpoint Dewpoint Depression Visibility Wind Speed Wind Dir Waves Ship Positions

Volgo-balt 229

Last reported at 2015-Sep-03 12:32 UTC. Time now 2015-Sep-03 12:56 UTC.
Position N 59°57' E 030°16'.

Length 113 m; draft 2.6 m.

Type: Ship. MMSI: 273336300.

Date/timePositionNaut miles runAvg speedWind from/ knotsBaromVisibWave heightAir tempDewpointWater temp
2015-Sep-03 12:32N 59°57' E 030°16'4 3.9
2015-Sep-03 11:33N 59°57' E 030°09'4 3.9
2015-Sep-03 10:33N 59°54' E 030°13'0 0.3
2015-Sep-03 09:33N 59°54' E 030°13'0 0.0
2015-Sep-03 08:33N 59°54' E 030°13'0 0.0
2015-Sep-03 07:33N 59°54' E 030°13'4 4.0
2015-Sep-03 06:33N 59°54' E 030°05'8 8.1
2015-Sep-03 05:33N 59°57' E 029°50'96 5.6
2015-Sep-02 12:33N 59°59' E 026°39'6 5.5
2015-Sep-02 11:32N 59°58' E 026°28'5 5.4
2015-Sep-02 10:33N 59°56' E 026°18'26 5.9
2015-Sep-02 06:08N 59°50' E 025°28'6 6.3
2015-Sep-02 05:12N 59°48' E 025°16'13 6.3
2015-Sep-02 03:13N 59°45' E 024°52'289 7.1
2015-Aug-31 10:21N 56°36' E 017°59'58 8.1
2015-Aug-31 03:12N 55°60' E 016°38'6 8.3
2015-Aug-31 02:32N 55°57' E 016°30'8 8.3
2015-Aug-31 01:33N 55°53' E 016°17'9 8.2
2015-Aug-31 00:28N 55°48' E 016°04'8 8.4
2015-Aug-30 23:33N 55°44' E 015°52'8 8.3
2015-Aug-30 22:33N 55°40' E 015°39'9 8.6
2015-Aug-30 21:33N 55°36' E 015°25'8 8.5
2015-Aug-30 20:33N 55°32' E 015°12'8 8.2
2015-Aug-30 19:33N 55°28' E 014°59'8 8.1
2015-Aug-30 18:33N 55°25' E 014°47'8 8.1
2015-Aug-30 17:33N 55°20' E 014°35'8 8.3
2015-Aug-30 16:33N 55°14' E 014°25'8 7.9
2015-Aug-30 15:33N 55°10' E 014°12'8 8.0
2015-Aug-30 14:33N 55°10' E 013°59'8 8.0
2015-Aug-30 13:33N 55°11' E 013°45'8 8.1
2015-Aug-30 12:33N 55°11' E 013°30'8 8.0
2015-Aug-30 11:33N 55°11' E 013°16'8 8.2
2015-Aug-30 10:33N 55°12' E 013°02'8 8.4
2015-Aug-30 09:33N 55°16' E 012°48'7 7.2
2015-Aug-30 08:33N 55°19' E 012°37'8 7.9
2015-Aug-30 07:33N 55°26' E 012°39'8 8.1
2015-Aug-30 06:33N 55°34' E 012°42'8 8.4
2015-Aug-30 05:33N 55°43' E 012°41'8 8.3
2015-Aug-30 04:33N 55°51' E 012°40'8 7.8
2015-Aug-30 03:33N 55°59' E 012°37'8 7.6
2015-Aug-30 02:33N 56°06' E 012°33'9 8.7
2015-Aug-30 01:33N 56°10' E 012°19'8 7.9
2015-Aug-30 00:33N 56°12' E 012°06'9 7.6
2015-Aug-29 23:19N 56°09' E 011°50'75 5.9
2015-Aug-29 10:33N 57°00' E 010°10'7 7.1
2015-Aug-29 09:33N 57°04' E 009°58'6 5.6
2015-Aug-29 08:33N 57°04' E 009°48'0 0.0
2015-Aug-27 07:24N 57°04' E 009°48'6 6.6
2015-Aug-27 06:33N 57°04' E 009°58'6 6.3
2015-Aug-27 05:33N 57°01' E 010°09'56 5.6
2015-Aug-26 19:33N 56°47' E 011°48'7 7.3
2015-Aug-26 18:33N 56°42' E 011°57'7 7.2
2015-Aug-26 17:33N 56°35' E 012°01'15 7.2
2015-Aug-26 15:31N 56°22' E 012°15'7 7.5
2015-Aug-26 14:33N 56°16' E 012°22'7 7.4
2015-Aug-26 13:33N 56°10' E 012°30'8 7.7
2015-Aug-26 12:34N 56°04' E 012°38'8 7.7
2015-Aug-26 11:33N 55°57' E 012°43'7 7.4
2015-Aug-26 10:33N 55°50' E 012°43'8 7.6
2015-Aug-26 09:34N 55°42' E 012°41'7 6.5
2015-Aug-26 08:34N 55°36' E 012°42'7 6.7
2015-Aug-26 07:34N 55°29' E 012°43'8 7.6
2015-Aug-26 06:34N 55°21' E 012°42'6 6.2
2015-Aug-26 05:32N 55°17' E 012°50'25 7.4
2015-Aug-26 02:10N 55°15' E 013°33'5 7.3
2015-Aug-26 01:29N 55°14' E 013°42'7 7.2
2015-Aug-26 00:33N 55°14' E 013°54'7 6.9
2015-Aug-25 23:33N 55°14' E 014°06'6 6.4
2015-Aug-25 22:33N 55°14' E 014°17'6 6.4
2015-Aug-25 21:34N 55°19' E 014°24'7 6.6
2015-Aug-25 20:33N 55°25' E 014°30'6 6.4
2015-Aug-25 19:33N 55°28' E 014°40'6 6.4
2015-Aug-25 18:33N 55°32' E 014°49'7 6.6
2015-Aug-25 17:33N 55°35' E 014°60'7 6.6
2015-Aug-25 16:33N 55°38' E 015°10'68 7.2
2015-Aug-25 07:06N 56°14' E 016°53'5 7.6
2015-Aug-25 06:23N 56°17' E 017°01'6 7.5
2015-Aug-25 05:33N 56°20' E 017°10'8 7.6
2015-Aug-25 04:33N 56°25' E 017°21'8 7.6
2015-Aug-25 03:33N 56°30' E 017°32'8 7.6
2015-Aug-25 02:33N 56°34' E 017°43'7 7.5
2015-Aug-25 01:33N 56°39' E 017°53'8 7.4
2015-Aug-25 00:31N 56°44' E 018°04'14 7.3
2015-Aug-24 22:34N 56°52' E 018°25'31 7.7
2015-Aug-24 18:31N 57°17' E 019°01'7 7.8
2015-Aug-24 17:34N 57°23' E 019°08'  

Dump ship's entire track history